sensor_id;sensor_type;location;lat;lon;timestamp;temperature;humidity
45685;DHT22;46836;48.388;16.210;2022-11-20T00:01:06;2.70;99.90
45685;DHT22;46836;48.388;16.210;2022-11-20T00:03:33;2.70;99.90
45685;DHT22;46836;48.388;16.210;2022-11-20T00:06:02;2.70;99.90
45685;DHT22;46836;48.388;16.210;2022-11-20T00:08:29;2.70;99.90
45685;DHT22;46836;48.388;16.210;2022-11-20T00:10:56;2.70;99.90
45685;DHT22;46836;48.388;16.210;2022-11-20T00:13:23;2.70;99.90
45685;DHT22;46836;48.388;16.210;2022-11-20T00:15:57;2.60;99.90
45685;DHT22;46836;48.388;16.210;2022-11-20T00:18:25;2.60;99.90
45685;DHT22;46836;48.388;16.210;2022-11-20T00:20:53;2.60;99.90
45685;DHT22;46836;48.388;16.210;2022-11-20T00:23:20;2.60;99.90
45685;DHT22;46836;48.388;16.210;2022-11-20T00:25:47;2.60;99.90
45685;DHT22;46836;48.388;16.210;2022-11-20T00:28:14;2.60;99.90
45685;DHT22;46836;48.388;16.210;2022-11-20T00:30:41;2.60;99.90
45685;DHT22;46836;48.388;16.210;2022-11-20T00:33:08;2.60;99.90
45685;DHT22;46836;48.388;16.210;2022-11-20T00:35:35;2.60;99.90
45685;DHT22;46836;48.388;16.210;2022-11-20T00:38:02;2.60;99.90
45685;DHT22;46836;48.388;16.210;2022-11-20T00:40:29;2.50;99.90
45685;DHT22;46836;48.388;16.210;2022-11-20T00:42:56;2.50;99.90
45685;DHT22;46836;48.388;16.210;2022-11-20T00:45:23;2.40;99.90
45685;DHT22;46836;48.388;16.210;2022-11-20T00:47:50;2.40;99.90
45685;DHT22;46836;48.388;16.210;2022-11-20T00:50:17;2.40;99.90
45685;DHT22;46836;48.388;16.210;2022-11-20T00:52:44;2.30;99.90
45685;DHT22;46836;48.388;16.210;2022-11-20T00:55:11;2.30;99.90
45685;DHT22;46836;48.388;16.210;2022-11-20T00:57:38;2.30;99.90
45685;DHT22;46836;48.388;16.210;2022-11-20T01:00:06;2.30;99.90
45685;DHT22;46836;48.388;16.210;2022-11-20T01:02:33;2.30;99.90
45685;DHT22;46836;48.388;16.210;2022-11-20T01:05:00;2.30;99.90
45685;DHT22;46836;48.388;16.210;2022-11-20T01:07:27;2.30;99.90
45685;DHT22;46836;48.388;16.210;2022-11-20T01:09:54;2.20;99.90
45685;DHT22;46836;48.388;16.210;2022-11-20T01:12:21;2.20;99.90
45685;DHT22;46836;48.388;16.210;2022-11-20T01:14:48;2.20;99.90
45685;DHT22;46836;48.388;16.210;2022-11-20T01:17:15;2.20;99.90
45685;DHT22;46836;48.388;16.210;2022-11-20T01:19:42;2.10;99.90
45685;DHT22;46836;48.388;16.210;2022-11-20T01:22:09;2.20;99.90
45685;DHT22;46836;48.388;16.210;2022-11-20T01:24:36;2.20;99.90
45685;DHT22;46836;48.388;16.210;2022-11-20T01:27:03;2.20;99.90
45685;DHT22;46836;48.388;16.210;2022-11-20T01:29:30;2.20;99.90
45685;DHT22;46836;48.388;16.210;2022-11-20T01:31:57;2.30;99.90
45685;DHT22;46836;48.388;16.210;2022-11-20T01:34:24;2.30;99.90
45685;DHT22;46836;48.388;16.210;2022-11-20T01:36:52;2.30;99.90
45685;DHT22;46836;48.388;16.210;2022-11-20T01:39:22;2.40;99.90
45685;DHT22;46836;48.388;16.210;2022-11-20T01:41:51;2.40;99.90
45685;DHT22;46836;48.388;16.210;2022-11-20T01:44:51;2.40;99.90
45685;DHT22;46836;48.388;16.210;2022-11-20T01:47:33;2.40;99.90
45685;DHT22;46836;48.388;16.210;2022-11-20T01:50:23;2.40;99.90
45685;DHT22;46836;48.388;16.210;2022-11-20T01:53:02;2.40;99.90
45685;DHT22;46836;48.388;16.210;2022-11-20T01:55:38;2.30;99.90
45685;DHT22;46836;48.388;16.210;2022-11-20T01:58:06;2.30;99.90
45685;DHT22;46836;48.388;16.210;2022-11-20T02:00:34;2.30;99.90
45685;DHT22;46836;48.388;16.210;2022-11-20T02:03:05;2.30;99.90
45685;DHT22;46836;48.388;16.210;2022-11-20T02:05:35;2.40;99.90
45685;DHT22;46836;48.388;16.210;2022-11-20T02:08:05;2.30;99.90
45685;DHT22;46836;48.388;16.210;2022-11-20T02:10:33;2.30;99.90
45685;DHT22;46836;48.388;16.210;2022-11-20T02:13:01;2.30;99.90
45685;DHT22;46836;48.388;16.210;2022-11-20T02:15:47;2.30;99.90
45685;DHT22;46836;48.388;16.210;2022-11-20T02:18:16;2.30;99.90
45685;DHT22;46836;48.388;16.210;2022-11-20T02:20:50;2.30;99.90
45685;DHT22;46836;48.388;16.210;2022-11-20T02:26:19;2.30;99.90
45685;DHT22;46836;48.388;16.210;2022-11-20T02:28:48;2.30;99.90
45685;DHT22;46836;48.388;16.210;2022-11-20T02:31:15;2.30;99.90
45685;DHT22;46836;48.388;16.210;2022-11-20T02:33:43;2.40;99.90
45685;DHT22;46836;48.388;16.210;2022-11-20T02:36:14;2.40;99.90
45685;DHT22;46836;48.388;16.210;2022-11-20T02:38:43;2.40;99.90
45685;DHT22;46836;48.388;16.210;2022-11-20T02:41:10;2.40;99.90
45685;DHT22;46836;48.388;16.210;2022-11-20T02:43:37;2.40;99.90
45685;DHT22;46836;48.388;16.210;2022-11-20T02:46:07;2.40;99.90
45685;DHT22;46836;48.388;16.210;2022-11-20T02:48:34;2.40;99.90
45685;DHT22;46836;48.388;16.210;2022-11-20T02:51:01;2.40;99.90
45685;DHT22;46836;48.388;16.210;2022-11-20T02:53:28;2.40;99.90
45685;DHT22;46836;48.388;16.210;2022-11-20T02:55:55;2.40;99.90
45685;DHT22;46836;48.388;16.210;2022-11-20T02:58:23;2.40;99.90
45685;DHT22;46836;48.388;16.210;2022-11-20T03:00:50;2.40;99.90
45685;DHT22;46836;48.388;16.210;2022-11-20T03:03:17;2.40;99.90
45685;DHT22;46836;48.388;16.210;2022-11-20T03:05:44;2.40;99.90
45685;DHT22;46836;48.388;16.210;2022-11-20T03:08:11;2.40;99.90
45685;DHT22;46836;48.388;16.210;2022-11-20T03:10:38;2.40;99.90
45685;DHT22;46836;48.388;16.210;2022-11-20T03:13:05;2.40;99.90
45685;DHT22;46836;48.388;16.210;2022-11-20T03:15:32;2.40;99.90
45685;DHT22;46836;48.388;16.210;2022-11-20T03:17:59;2.50;99.90
45685;DHT22;46836;48.388;16.210;2022-11-20T03:20:26;2.50;99.90
45685;DHT22;46836;48.388;16.210;2022-11-20T03:22:54;2.50;99.90
45685;DHT22;46836;48.388;16.210;2022-11-20T03:25:22;2.50;99.90
45685;DHT22;46836;48.388;16.210;2022-11-20T03:27:49;2.50;99.90
45685;DHT22;46836;48.388;16.210;2022-11-20T03:30:16;2.40;99.90
45685;DHT22;46836;48.388;16.210;2022-11-20T03:32:43;2.50;99.90
45685;DHT22;46836;48.388;16.210;2022-11-20T03:35:10;2.50;99.90
45685;DHT22;46836;48.388;16.210;2022-11-20T03:37:37;2.50;99.90
45685;DHT22;46836;48.388;16.210;2022-11-20T03:40:05;2.50;99.90
45685;DHT22;46836;48.388;16.210;2022-11-20T03:42:32;2.50;99.90
45685;DHT22;46836;48.388;16.210;2022-11-20T03:45:16;2.50;99.90
45685;DHT22;46836;48.388;16.210;2022-11-20T03:47:44;2.40;99.90
45685;DHT22;46836;48.388;16.210;2022-11-20T03:50:13;2.40;99.90
45685;DHT22;46836;48.388;16.210;2022-11-20T03:52:41;2.40;99.90
45685;DHT22;46836;48.388;16.210;2022-11-20T03:55:08;2.40;99.90
45685;DHT22;46836;48.388;16.210;2022-11-20T03:57:35;2.40;99.90
45685;DHT22;46836;48.388;16.210;2022-11-20T04:00:04;2.40;99.90
45685;DHT22;46836;48.388;16.210;2022-11-20T04:02:31;2.40;99.90
45685;DHT22;46836;48.388;16.210;2022-11-20T04:04:58;2.40;99.90
45685;DHT22;46836;48.388;16.210;2022-11-20T04:07:25;2.40;99.90
45685;DHT22;46836;48.388;16.210;2022-11-20T04:09:52;2.40;99.90
45685;DHT22;46836;48.388;16.210;2022-11-20T04:12:19;2.40;99.90
45685;DHT22;46836;48.388;16.210;2022-11-20T04:14:46;2.40;99.90
45685;DHT22;46836;48.388;16.210;2022-11-20T04:17:13;2.30;99.90
45685;DHT22;46836;48.388;16.210;2022-11-20T04:19:40;2.30;99.90
45685;DHT22;46836;48.388;16.210;2022-11-20T04:22:07;2.40;99.90
45685;DHT22;46836;48.388;16.210;2022-11-20T04:24:35;2.40;99.90
45685;DHT22;46836;48.388;16.210;2022-11-20T04:27:02;2.40;99.90
45685;DHT22;46836;48.388;16.210;2022-11-20T04:29:29;2.40;99.90
45685;DHT22;46836;48.388;16.210;2022-11-20T04:31:56;2.40;99.90
45685;DHT22;46836;48.388;16.210;2022-11-20T04:34:23;2.50;99.90
45685;DHT22;46836;48.388;16.210;2022-11-20T04:36:50;2.50;99.90
45685;DHT22;46836;48.388;16.210;2022-11-20T04:39:17;2.40;99.90
45685;DHT22;46836;48.388;16.210;2022-11-20T04:41:44;2.40;99.90
45685;DHT22;46836;48.388;16.210;2022-11-20T04:44:11;2.30;99.90
45685;DHT22;46836;48.388;16.210;2022-11-20T04:46:40;2.30;99.90
45685;DHT22;46836;48.388;16.210;2022-11-20T04:49:08;2.10;99.90
45685;DHT22;46836;48.388;16.210;2022-11-20T04:51:35;2.10;99.90
45685;DHT22;46836;48.388;16.210;2022-11-20T04:54:02;2.10;99.90
45685;DHT22;46836;48.388;16.210;2022-11-20T04:56:29;2.00;99.90
45685;DHT22;46836;48.388;16.210;2022-11-20T04:59:00;2.00;99.90
45685;DHT22;46836;48.388;16.210;2022-11-20T05:01:28;1.90;99.90
45685;DHT22;46836;48.388;16.210;2022-11-20T05:03:55;1.90;99.90
45685;DHT22;46836;48.388;16.210;2022-11-20T05:06:24;1.90;99.90
45685;DHT22;46836;48.388;16.210;2022-11-20T05:08:51;1.80;99.90
45685;DHT22;46836;48.388;16.210;2022-11-20T05:11:20;1.80;99.90
45685;DHT22;46836;48.388;16.210;2022-11-20T05:13:48;1.70;99.90
45685;DHT22;46836;48.388;16.210;2022-11-20T05:16:19;1.70;99.90
45685;DHT22;46836;48.388;16.210;2022-11-20T05:18:47;1.60;99.90
45685;DHT22;46836;48.388;16.210;2022-11-20T05:21:14;1.70;99.90
45685;DHT22;46836;48.388;16.210;2022-11-20T05:23:43;1.60;99.90
45685;DHT22;46836;48.388;16.210;2022-11-20T05:26:20;1.60;99.90
45685;DHT22;46836;48.388;16.210;2022-11-20T05:28:51;1.70;99.90
45685;DHT22;46836;48.388;16.210;2022-11-20T05:31:23;1.60;99.90
45685;DHT22;46836;48.388;16.210;2022-11-20T05:33:55;1.60;99.90
45685;DHT22;46836;48.388;16.210;2022-11-20T05:36:22;1.60;99.90
45685;DHT22;46836;48.388;16.210;2022-11-20T05:38:49;1.60;99.90
45685;DHT22;46836;48.388;16.210;2022-11-20T05:41:20;1.60;99.90
45685;DHT22;46836;48.388;16.210;2022-11-20T05:43:49;1.60;99.90
45685;DHT22;46836;48.388;16.210;2022-11-20T05:46:20;1.60;99.90
45685;DHT22;46836;48.388;16.210;2022-11-20T05:48:54;1.60;99.90
45685;DHT22;46836;48.388;16.210;2022-11-20T05:51:22;1.50;99.90
45685;DHT22;46836;48.388;16.210;2022-11-20T05:53:49;1.60;99.90
45685;DHT22;46836;48.388;16.210;2022-11-20T05:56:18;1.60;99.90
45685;DHT22;46836;48.388;16.210;2022-11-20T05:58:46;1.50;99.90
45685;DHT22;46836;48.388;16.210;2022-11-20T06:01:25;1.50;99.90
45685;DHT22;46836;48.388;16.210;2022-11-20T06:03:53;1.50;99.90
45685;DHT22;46836;48.388;16.210;2022-11-20T06:06:21;1.50;99.90
45685;DHT22;46836;48.388;16.210;2022-11-20T06:08:48;1.50;99.90
45685;DHT22;46836;48.388;16.210;2022-11-20T06:11:16;1.50;99.90
45685;DHT22;46836;48.388;16.210;2022-11-20T06:13:44;1.60;99.90
45685;DHT22;46836;48.388;16.210;2022-11-20T06:16:15;1.70;99.90
45685;DHT22;46836;48.388;16.210;2022-11-20T06:18:42;1.70;99.90
45685;DHT22;46836;48.388;16.210;2022-11-20T06:21:15;1.70;99.90
45685;DHT22;46836;48.388;16.210;2022-11-20T06:23:43;1.60;99.90
45685;DHT22;46836;48.388;16.210;2022-11-20T06:26:14;1.60;99.90
45685;DHT22;46836;48.388;16.210;2022-11-20T06:28:42;1.60;99.90
45685;DHT22;46836;48.388;16.210;2022-11-20T06:31:11;1.60;99.90
45685;DHT22;46836;48.388;16.210;2022-11-20T06:33:39;1.70;99.90
45685;DHT22;46836;48.388;16.210;2022-11-20T06:36:06;1.80;99.90
45685;DHT22;46836;48.388;16.210;2022-11-20T06:38:37;1.80;99.90
45685;DHT22;46836;48.388;16.210;2022-11-20T06:41:11;1.80;99.90
45685;DHT22;46836;48.388;16.210;2022-11-20T06:43:39;1.80;99.90
45685;DHT22;46836;48.388;16.210;2022-11-20T06:46:06;1.80;99.90
45685;DHT22;46836;48.388;16.210;2022-11-20T06:48:33;1.80;99.90
45685;DHT22;46836;48.388;16.210;2022-11-20T06:51:06;1.80;99.90
45685;DHT22;46836;48.388;16.210;2022-11-20T06:53:34;1.90;99.90
45685;DHT22;46836;48.388;16.210;2022-11-20T06:56:02;1.90;99.90
45685;DHT22;46836;48.388;16.210;2022-11-20T06:58:30;1.90;99.90
45685;DHT22;46836;48.388;16.210;2022-11-20T07:00:59;2.00;99.90
45685;DHT22;46836;48.388;16.210;2022-11-20T07:03:26;2.00;99.90
45685;DHT22;46836;48.388;16.210;2022-11-20T07:05:57;2.00;99.90
45685;DHT22;46836;48.388;16.210;2022-11-20T07:08:25;2.10;99.90
45685;DHT22;46836;48.388;16.210;2022-11-20T07:10:52;2.10;99.90
45685;DHT22;46836;48.388;16.210;2022-11-20T07:13:19;2.20;99.90
45685;DHT22;46836;48.388;16.210;2022-11-20T07:15:46;2.20;99.90
45685;DHT22;46836;48.388;16.210;2022-11-20T07:18:13;2.20;99.90
45685;DHT22;46836;48.388;16.210;2022-11-20T07:20:40;2.20;99.90
45685;DHT22;46836;48.388;16.210;2022-11-20T07:23:07;2.30;99.90
45685;DHT22;46836;48.388;16.210;2022-11-20T07:25:34;2.30;99.90
45685;DHT22;46836;48.388;16.210;2022-11-20T07:28:02;2.30;99.90
45685;DHT22;46836;48.388;16.210;2022-11-20T07:30:30;2.30;99.90
45685;DHT22;46836;48.388;16.210;2022-11-20T07:32:57;2.40;99.90
45685;DHT22;46836;48.388;16.210;2022-11-20T07:35:24;2.40;99.90
45685;DHT22;46836;48.388;16.210;2022-11-20T07:37:51;2.40;99.90
45685;DHT22;46836;48.388;16.210;2022-11-20T07:40:19;2.50;99.90
45685;DHT22;46836;48.388;16.210;2022-11-20T07:42:54;2.50;99.90
45685;DHT22;46836;48.388;16.210;2022-11-20T07:45:23;2.50;99.90
45685;DHT22;46836;48.388;16.210;2022-11-20T07:47:50;2.50;99.90
45685;DHT22;46836;48.388;16.210;2022-11-20T07:50:18;2.50;99.90
45685;DHT22;46836;48.388;16.210;2022-11-20T07:52:46;2.50;99.90
45685;DHT22;46836;48.388;16.210;2022-11-20T07:55:14;2.50;99.90
45685;DHT22;46836;48.388;16.210;2022-11-20T07:57:41;2.50;99.90
45685;DHT22;46836;48.388;16.210;2022-11-20T08:00:10;2.50;99.90
45685;DHT22;46836;48.388;16.210;2022-11-20T08:02:41;2.50;99.90
45685;DHT22;46836;48.388;16.210;2022-11-20T08:05:09;2.50;99.90
45685;DHT22;46836;48.388;16.210;2022-11-20T08:07:41;2.60;99.90
45685;DHT22;46836;48.388;16.210;2022-11-20T08:10:11;2.70;99.90
45685;DHT22;46836;48.388;16.210;2022-11-20T08:12:47;2.80;99.90
45685;DHT22;46836;48.388;16.210;2022-11-20T08:15:33;2.80;99.90
45685;DHT22;46836;48.388;16.210;2022-11-20T08:18:05;2.90;99.90
45685;DHT22;46836;48.388;16.210;2022-11-20T08:20:52;2.90;99.90
45685;DHT22;46836;48.388;16.210;2022-11-20T08:23:19;2.90;99.90
45685;DHT22;46836;48.388;16.210;2022-11-20T08:25:49;2.90;99.90
45685;DHT22;46836;48.388;16.210;2022-11-20T08:28:16;2.90;99.90
45685;DHT22;46836;48.388;16.210;2022-11-20T08:30:47;2.90;99.90
45685;DHT22;46836;48.388;16.210;2022-11-20T08:33:14;3.00;99.90
45685;DHT22;46836;48.388;16.210;2022-11-20T08:35:41;3.00;99.90
45685;DHT22;46836;48.388;16.210;2022-11-20T08:38:09;3.10;99.90
45685;DHT22;46836;48.388;16.210;2022-11-20T08:40:36;3.10;99.90
45685;DHT22;46836;48.388;16.210;2022-11-20T08:43:03;3.10;99.90
45685;DHT22;46836;48.388;16.210;2022-11-20T08:45:31;3.20;99.90
45685;DHT22;46836;48.388;16.210;2022-11-20T08:48:03;3.30;99.90
45685;DHT22;46836;48.388;16.210;2022-11-20T08:50:31;3.30;99.90
45685;DHT22;46836;48.388;16.210;2022-11-20T08:53:06;3.30;99.90
45685;DHT22;46836;48.388;16.210;2022-11-20T08:55:33;3.30;99.90
45685;DHT22;46836;48.388;16.210;2022-11-20T08:58:06;3.30;99.90
45685;DHT22;46836;48.388;16.210;2022-11-20T09:00:34;3.30;99.90
45685;DHT22;46836;48.388;16.210;2022-11-20T09:03:01;3.30;99.90
45685;DHT22;46836;48.388;16.210;2022-11-20T09:05:29;3.30;99.90
45685;DHT22;46836;48.388;16.210;2022-11-20T09:07:57;3.40;99.90
45685;DHT22;46836;48.388;16.210;2022-11-20T09:10:24;3.40;99.90
45685;DHT22;46836;48.388;16.210;2022-11-20T09:12:53;3.40;99.90
45685;DHT22;46836;48.388;16.210;2022-11-20T09:15:22;3.40;99.90
45685;DHT22;46836;48.388;16.210;2022-11-20T09:17:56;3.40;99.90
45685;DHT22;46836;48.388;16.210;2022-11-20T09:20:25;3.40;99.90
45685;DHT22;46836;48.388;16.210;2022-11-20T09:22:52;3.50;99.90
45685;DHT22;46836;48.388;16.210;2022-11-20T09:25:19;3.50;99.90
45685;DHT22;46836;48.388;16.210;2022-11-20T09:27:46;3.60;99.90
45685;DHT22;46836;48.388;16.210;2022-11-20T09:30:14;3.60;99.90
45685;DHT22;46836;48.388;16.210;2022-11-20T09:32:42;3.70;99.90
45685;DHT22;46836;48.388;16.210;2022-11-20T09:35:10;3.80;99.90
45685;DHT22;46836;48.388;16.210;2022-11-20T09:37:37;3.80;99.90
45685;DHT22;46836;48.388;16.210;2022-11-20T09:40:05;3.80;99.90
45685;DHT22;46836;48.388;16.210;2022-11-20T09:42:35;3.90;99.90
45685;DHT22;46836;48.388;16.210;2022-11-20T09:56:39;3.90;99.90
45685;DHT22;46836;48.388;16.210;2022-11-20T09:59:18;4.00;99.90
45685;DHT22;46836;48.388;16.210;2022-11-20T10:01:50;4.10;99.90
45685;DHT22;46836;48.388;16.210;2022-11-20T10:04:19;4.20;99.90
45685;DHT22;46836;48.388;16.210;2022-11-20T10:07:14;4.20;99.90
45685;DHT22;46836;48.388;16.210;2022-11-20T10:09:58;4.30;99.90
45685;DHT22;46836;48.388;16.210;2022-11-20T10:15:33;4.40;99.90
45685;DHT22;46836;48.388;16.210;2022-11-20T10:21:07;4.50;99.90
45685;DHT22;46836;48.388;16.210;2022-11-20T10:31:40;4.50;99.90
45685;DHT22;46836;48.388;16.210;2022-11-20T10:37:25;4.50;99.90
45685;DHT22;46836;48.388;16.210;2022-11-20T10:39:57;4.60;99.90
45685;DHT22;46836;48.388;16.210;2022-11-20T10:42:46;4.60;99.90
45685;DHT22;46836;48.388;16.210;2022-11-20T10:47:46;4.70;99.90
45685;DHT22;46836;48.388;16.210;2022-11-20T10:50:18;4.80;99.90
45685;DHT22;46836;48.388;16.210;2022-11-20T10:53:01;4.80;99.90
45685;DHT22;46836;48.388;16.210;2022-11-20T10:55:50;4.70;99.90
45685;DHT22;46836;48.388;16.210;2022-11-20T11:01:19;4.70;99.90
45685;DHT22;46836;48.388;16.210;2022-11-20T11:03:52;4.70;99.90
45685;DHT22;46836;48.388;16.210;2022-11-20T11:06:25;4.70;99.90
45685;DHT22;46836;48.388;16.210;2022-11-20T11:08:57;4.70;99.90
45685;DHT22;46836;48.388;16.210;2022-11-20T11:11:29;4.70;99.90
45685;DHT22;46836;48.388;16.210;2022-11-20T11:14:06;4.70;99.90
45685;DHT22;46836;48.388;16.210;2022-11-20T11:16:34;4.80;99.90
45685;DHT22;46836;48.388;16.210;2022-11-20T11:19:12;4.80;99.90
45685;DHT22;46836;48.388;16.210;2022-11-20T11:21:49;4.90;99.90
45685;DHT22;46836;48.388;16.210;2022-11-20T11:24:26;4.90;99.90
45685;DHT22;46836;48.388;16.210;2022-11-20T11:27:14;4.90;99.90
45685;DHT22;46836;48.388;16.210;2022-11-20T11:29:45;5.00;99.90
45685;DHT22;46836;48.388;16.210;2022-11-20T11:32:15;5.00;99.90
45685;DHT22;46836;48.388;16.210;2022-11-20T11:34:42;5.00;99.90
45685;DHT22;46836;48.388;16.210;2022-11-20T11:37:15;5.00;99.90
45685;DHT22;46836;48.388;16.210;2022-11-20T11:39:44;5.10;99.90
45685;DHT22;46836;48.388;16.210;2022-11-20T11:42:30;5.10;99.90
45685;DHT22;46836;48.388;16.210;2022-11-20T11:44:59;5.20;99.90
45685;DHT22;46836;48.388;16.210;2022-11-20T11:47:34;5.20;99.90
45685;DHT22;46836;48.388;16.210;2022-11-20T11:52:56;5.30;99.90
45685;DHT22;46836;48.388;16.210;2022-11-20T11:55:45;5.40;99.90
45685;DHT22;46836;48.388;16.210;2022-11-20T12:06:39;5.50;99.90
45685;DHT22;46836;48.388;16.210;2022-11-20T12:09:11;5.50;99.90
45685;DHT22;46836;48.388;16.210;2022-11-20T12:14:32;5.60;99.90
45685;DHT22;46836;48.388;16.210;2022-11-20T12:17:05;5.60;99.90
45685;DHT22;46836;48.388;16.210;2022-11-20T12:19:35;5.70;99.90
45685;DHT22;46836;48.388;16.210;2022-11-20T12:25:28;5.90;99.90
45685;DHT22;46836;48.388;16.210;2022-11-20T12:28:18;6.00;99.90
45685;DHT22;46836;48.388;16.210;2022-11-20T12:31:04;6.00;99.90
45685;DHT22;46836;48.388;16.210;2022-11-20T12:41:58;5.80;99.90
45685;DHT22;46836;48.388;16.210;2022-11-20T12:47:49;5.90;99.90
45685;DHT22;46836;48.388;16.210;2022-11-20T13:03:47;6.00;99.90
45685;DHT22;46836;48.388;16.210;2022-11-20T13:06:18;6.00;99.90
45685;DHT22;46836;48.388;16.210;2022-11-20T13:08:53;6.10;99.90
45685;DHT22;46836;48.388;16.210;2022-11-20T13:11:39;6.10;99.90
45685;DHT22;46836;48.388;16.210;2022-11-20T13:15:08;6.10;99.90
45685;DHT22;46836;48.388;16.210;2022-11-20T13:17:25;6.10;99.90
45685;DHT22;46836;48.388;16.210;2022-11-20T13:19:55;6.10;99.90
45685;DHT22;46836;48.388;16.210;2022-11-20T13:22:42;6.00;99.90
45685;DHT22;46836;48.388;16.210;2022-11-20T13:25:21;6.10;99.90
45685;DHT22;46836;48.388;16.210;2022-11-20T13:27:50;6.10;99.90
45685;DHT22;46836;48.388;16.210;2022-11-20T13:30:20;6.10;99.90
45685;DHT22;46836;48.388;16.210;2022-11-20T13:36:07;6.10;99.90
45685;DHT22;46836;48.388;16.210;2022-11-20T13:38:48;6.20;99.90
45685;DHT22;46836;48.388;16.210;2022-11-20T13:41:33;6.10;99.90
45685;DHT22;46836;48.388;16.210;2022-11-20T13:46:58;6.10;99.90
45685;DHT22;46836;48.388;16.210;2022-11-20T13:49:38;6.00;99.90
45685;DHT22;46836;48.388;16.210;2022-11-20T13:52:26;5.90;99.90
45685;DHT22;46836;48.388;16.210;2022-11-20T14:00:22;5.80;99.90
45685;DHT22;46836;48.388;16.210;2022-11-20T14:05:37;5.80;99.90
45685;DHT22;46836;48.388;16.210;2022-11-20T14:08:13;5.80;99.90
45685;DHT22;46836;48.388;16.210;2022-11-20T14:10:41;5.80;99.90
45685;DHT22;46836;48.388;16.210;2022-11-20T14:13:18;5.90;99.90
45685;DHT22;46836;48.388;16.210;2022-11-20T14:15:48;5.90;99.90
45685;DHT22;46836;48.388;16.210;2022-11-20T14:18:26;6.00;99.90
45685;DHT22;46836;48.388;16.210;2022-11-20T14:20:54;6.00;99.90
45685;DHT22;46836;48.388;16.210;2022-11-20T14:23:27;6.10;99.90
45685;DHT22;46836;48.388;16.210;2022-11-20T14:25:56;6.10;99.90
45685;DHT22;46836;48.388;16.210;2022-11-20T14:28:29;6.10;99.90
45685;DHT22;46836;48.388;16.210;2022-11-20T14:30:57;6.00;99.90
45685;DHT22;46836;48.388;16.210;2022-11-20T14:33:26;5.90;99.90
45685;DHT22;46836;48.388;16.210;2022-11-20T14:35:57;5.80;99.90
45685;DHT22;46836;48.388;16.210;2022-11-20T14:38:27;5.80;99.90
45685;DHT22;46836;48.388;16.210;2022-11-20T14:41:07;5.70;99.90
45685;DHT22;46836;48.388;16.210;2022-11-20T14:43:36;5.60;99.90
45685;DHT22;46836;48.388;16.210;2022-11-20T14:46:08;5.60;99.90
45685;DHT22;46836;48.388;16.210;2022-11-20T14:49:08;5.60;99.90
45685;DHT22;46836;48.388;16.210;2022-11-20T14:51:40;5.60;99.90
45685;DHT22;46836;48.388;16.210;2022-11-20T14:54:19;5.60;99.90
45685;DHT22;46836;48.388;16.210;2022-11-20T14:57:00;5.60;99.90
45685;DHT22;46836;48.388;16.210;2022-11-20T14:59:33;5.60;99.90
45685;DHT22;46836;48.388;16.210;2022-11-20T15:02:08;5.50;99.90
45685;DHT22;46836;48.388;16.210;2022-11-20T15:04:50;5.50;99.90
45685;DHT22;46836;48.388;16.210;2022-11-20T15:07:32;5.40;99.90
45685;DHT22;46836;48.388;16.210;2022-11-20T15:10:10;5.40;99.90
45685;DHT22;46836;48.388;16.210;2022-11-20T15:13:02;5.40;99.90
45685;DHT22;46836;48.388;16.210;2022-11-20T15:15:47;5.30;99.90
45685;DHT22;46836;48.388;16.210;2022-11-20T15:18:19;5.20;99.90
45685;DHT22;46836;48.388;16.210;2022-11-20T15:20:48;5.20;99.90
45685;DHT22;46836;48.388;16.210;2022-11-20T15:23:17;5.10;99.90
45685;DHT22;46836;48.388;16.210;2022-11-20T15:25:48;5.10;99.90
45685;DHT22;46836;48.388;16.210;2022-11-20T15:28:27;5.10;99.90
45685;DHT22;46836;48.388;16.210;2022-11-20T15:30:56;5.10;99.90
45685;DHT22;46836;48.388;16.210;2022-11-20T15:33:24;5.00;99.90
45685;DHT22;46836;48.388;16.210;2022-11-20T15:35:53;5.00;99.90
45685;DHT22;46836;48.388;16.210;2022-11-20T15:38:21;5.00;99.90
45685;DHT22;46836;48.388;16.210;2022-11-20T15:40:49;4.90;99.90
45685;DHT22;46836;48.388;16.210;2022-11-20T15:43:18;4.90;99.90
45685;DHT22;46836;48.388;16.210;2022-11-20T15:45:50;4.90;99.90
45685;DHT22;46836;48.388;16.210;2022-11-20T15:48:20;4.90;99.90
45685;DHT22;46836;48.388;16.210;2022-11-20T15:53:25;4.90;99.90
45685;DHT22;46836;48.388;16.210;2022-11-20T15:55:53;4.80;99.90
45685;DHT22;46836;48.388;16.210;2022-11-20T15:58:20;4.80;99.90
45685;DHT22;46836;48.388;16.210;2022-11-20T16:00:50;4.80;99.90
45685;DHT22;46836;48.388;16.210;2022-11-20T16:03:19;4.80;99.90
45685;DHT22;46836;48.388;16.210;2022-11-20T16:05:46;4.80;99.90
45685;DHT22;46836;48.388;16.210;2022-11-20T16:08:14;4.80;99.90
45685;DHT22;46836;48.388;16.210;2022-11-20T16:10:42;4.90;99.90
45685;DHT22;46836;48.388;16.210;2022-11-20T16:13:17;4.90;99.90
45685;DHT22;46836;48.388;16.210;2022-11-20T16:16:07;4.90;99.90
45685;DHT22;46836;48.388;16.210;2022-11-20T16:18:38;4.90;99.90
45685;DHT22;46836;48.388;16.210;2022-11-20T16:21:11;4.90;99.90
45685;DHT22;46836;48.388;16.210;2022-11-20T16:23:41;4.90;99.90
45685;DHT22;46836;48.388;16.210;2022-11-20T16:26:14;4.90;99.90
45685;DHT22;46836;48.388;16.210;2022-11-20T16:28:44;4.90;99.90
45685;DHT22;46836;48.388;16.210;2022-11-20T16:31:15;4.90;99.90
45685;DHT22;46836;48.388;16.210;2022-11-20T16:33:49;4.90;99.90
45685;DHT22;46836;48.388;16.210;2022-11-20T16:36:19;4.80;99.90
45685;DHT22;46836;48.388;16.210;2022-11-20T16:38:52;4.80;99.90
45685;DHT22;46836;48.388;16.210;2022-11-20T16:41:21;4.80;99.90
45685;DHT22;46836;48.388;16.210;2022-11-20T16:43:51;4.80;99.90
45685;DHT22;46836;48.388;16.210;2022-11-20T16:46:21;4.80;99.90
45685;DHT22;46836;48.388;16.210;2022-11-20T16:48:58;4.80;99.90
45685;DHT22;46836;48.388;16.210;2022-11-20T16:51:29;4.70;99.90
45685;DHT22;46836;48.388;16.210;2022-11-20T16:53:57;4.70;99.90
45685;DHT22;46836;48.388;16.210;2022-11-20T16:56:29;4.70;99.90
45685;DHT22;46836;48.388;16.210;2022-11-20T16:59:00;4.70;99.90
45685;DHT22;46836;48.388;16.210;2022-11-20T17:01:30;4.70;99.90
45685;DHT22;46836;48.388;16.210;2022-11-20T17:04:04;4.70;99.90
45685;DHT22;46836;48.388;16.210;2022-11-20T17:06:38;4.80;99.90
45685;DHT22;46836;48.388;16.210;2022-11-20T17:09:07;4.80;99.90
45685;DHT22;46836;48.388;16.210;2022-11-20T17:11:36;4.80;99.90
45685;DHT22;46836;48.388;16.210;2022-11-20T17:14:05;4.90;99.90
45685;DHT22;46836;48.388;16.210;2022-11-20T17:16:34;4.90;99.90
45685;DHT22;46836;48.388;16.210;2022-11-20T17:19:02;4.90;99.90
45685;DHT22;46836;48.388;16.210;2022-11-20T17:21:33;4.90;99.90
45685;DHT22;46836;48.388;16.210;2022-11-20T17:24:07;5.00;99.90
45685;DHT22;46836;48.388;16.210;2022-11-20T17:26:37;4.90;99.90
45685;DHT22;46836;48.388;16.210;2022-11-20T17:29:10;5.00;99.90